Time;durP1;ratioP1;P1;durP2;ratioP2;P2;SDS_P1;SDS_P2;PMS_P1;PMS_P2;Temp;Humidity;BMP_temperature;BMP_pressure;BME280_temperature;BME280_humidity;BME280_pressure;Samples;Min_cycle;Max_cycle;Signal;HPM_P1;HPM_P2
2021/09/25 00:00:33;;;;;;;8.82;5.35;;;;;;;5.55;100.00;93296.19;2084542;28;20027;-78
2021/09/25 00:01:34;;;;;;;6.32;4.70;;;;;;;5.59;100.00;93298.84;2116050;27;20475;-80
2021/09/25 00:02:36;;;;;;;7.93;5.05;;;;;;;5.60;100.00;93296.94;2115956;27;20031;-79
2021/09/25 00:03:38;;;;;;;10.95;4.85;;;;;;;5.50;100.00;93298.47;2082687;28;20021;-80
2021/09/25 00:04:41;;;;;;;7.50;4.45;;;;;;;5.50;100.00;93304.53;2084360;28;20023;-79
2021/09/25 00:05:43;;;;;;;8.77;4.47;;;;;;;5.59;100.00;93290.88;2118036;27;20054;-79
2021/09/25 00:06:44;;;;;;;7.38;4.75;;;;;;;5.62;100.00;93297.31;2116582;27;20104;-80
2021/09/25 00:07:46;;;;;;;8.57;5.10;;;;;;;5.61;100.00;93290.50;2120152;27;20047;-79
2021/09/25 00:08:46;;;;;;;7.88;4.95;;;;;;;5.64;100.00;93297.69;2118029;27;20046;-81
2021/09/25 00:09:48;;;;;;;7.57;4.82;;;;;;;5.62;100.00;93297.31;2108629;28;20034;-78
2021/09/25 00:10:48;;;;;;;7.28;5.10;;;;;;;5.57;100.00;93293.16;2116874;27;20039;-78
2021/09/25 00:11:49;;;;;;;8.88;5.10;;;;;;;5.52;100.00;93293.53;2126243;27;20031;-80
2021/09/25 00:12:51;;;;;;;6.95;4.97;;;;;;;5.49;100.00;93302.25;2125784;27;20035;-78
2021/09/25 00:13:53;;;;;;;6.40;5.10;;;;;;;5.49;100.00;93308.31;2118932;27;20061;-79
2021/09/25 00:14:54;;;;;;;6.97;4.57;;;;;;;5.53;100.00;93303.00;2118494;27;20031;-79
2021/09/25 00:15:54;;;;;;;7.38;4.63;;;;;;;5.61;100.00;93309.06;2127236;27;20023;-78
2021/09/25 00:16:55;;;;;;;7.80;5.07;;;;;;;5.59;100.00;93304.16;2116483;27;20027;-78
2021/09/25 00:17:58;;;;;;;8.93;4.68;;;;;;;5.49;100.00;93310.97;2115724;27;20064;-80
2021/09/25 00:19:00;;;;;;;8.38;5.00;;;;;;;5.49;100.00;93308.31;2128743;27;20049;-80
2021/09/25 00:20:02;;;;;;;6.80;4.95;;;;;;;5.51;100.00;93310.56;2116395;27;20027;-78
2021/09/25 00:21:03;;;;;;;7.30;4.90;;;;;;;5.52;100.00;93317.38;2109277;28;20040;-80
2021/09/25 00:22:05;;;;;;;10.75;4.78;;;;;;;5.53;100.00;93313.59;2110143;28;20070;-78
2021/09/25 00:23:06;;;;;;;8.68;5.15;;;;;;;5.56;100.00;93310.94;2116411;27;20027;-79
2021/09/25 00:24:08;;;;;;;7.00;4.70;;;;;;;5.58;100.00;93310.59;2122808;27;20027;-78
2021/09/25 00:25:09;;;;;;;7.40;4.90;;;;;;;5.60;100.00;93303.00;2108577;28;20503;-77
2021/09/25 00:26:10;;;;;;;7.93;4.80;;;;;;;5.60;100.00;93310.97;2107705;28;20031;-77
2021/09/25 00:27:11;;;;;;;7.85;5.10;;;;;;;5.60;100.00;93312.84;2113695;28;20066;-79
2021/09/25 00:28:12;;;;;;;7.53;4.18;;;;;;;5.56;100.00;93307.53;2113663;28;20030;-77
2021/09/25 00:29:13;;;;;;;5.82;4.63;;;;;;;5.56;100.00;93305.66;2116562;27;20031;-80
2021/09/25 00:30:15;;;;;;;5.38;4.47;;;;;;;5.58;100.00;93307.94;2118216;27;20057;-79
2021/09/25 00:31:16;;;;;;;7.25;4.68;;;;;;;5.59;100.00;93309.44;2109301;28;20106;-78
2021/09/25 00:32:17;;;;;;;7.15;4.68;;;;;;;5.63;100.00;93304.91;2109455;28;20027;-78
2021/09/25 00:33:18;;;;;;;6.40;4.55;;;;;;;5.45;100.00;93310.19;2108116;28;20022;-80
2021/09/25 00:34:20;;;;;;;6.55;4.32;;;;;;;5.53;100.00;93303.00;2106424;28;20019;-81
2021/09/25 00:35:21;;;;;;;6.90;4.72;;;;;;;5.46;100.00;93316.25;2116876;27;20076;-79
2021/09/25 00:36:22;;;;;;;7.38;4.65;;;;;;;5.46;100.00;93310.97;2127120;27;20324;-79
2021/09/25 00:37:23;;;;;;;4.70;4.18;;;;;;;5.54;100.00;93312.47;2117640;27;20046;-78
2021/09/25 00:38:24;;;;;;;5.18;3.78;;;;;;;5.54;100.00;93305.28;2116195;27;20049;-77
2021/09/25 00:39:25;;;;;;;8.02;4.70;;;;;;;5.43;100.00;93309.81;2117251;27;20019;-80
2021/09/25 00:40:26;;;;;;;7.90;4.28;;;;;;;5.56;100.00;93304.91;2119868;27;20497;-77
2021/09/25 00:41:30;;;;;;;6.75;4.35;;;;;;;5.66;100.00;93306.03;2126567;27;20105;-79
2021/09/25 00:42:31;;;;;;;8.43;4.68;;;;;;;5.59;100.00;93306.78;2119260;27;20034;-79
2021/09/25 00:43:33;;;;;;;5.85;4.43;;;;;;;5.55;100.00;93303.38;2103178;28;20117;-79
2021/09/25 00:44:34;;;;;;;5.75;4.20;;;;;;;5.43;100.00;93301.84;2110083;27;20595;-79
2021/09/25 00:45:35;;;;;;;5.32;4.28;;;;;;;5.53;100.00;93305.63;2127177;27;20082;-79
2021/09/25 00:46:36;;;;;;;8.32;4.03;;;;;;;5.49;100.00;93308.31;2116909;27;20027;-78
2021/09/25 00:47:37;;;;;;;5.28;4.22;;;;;;;5.49;100.00;93297.72;2116866;27;20090;-78
2021/09/25 00:48:38;;;;;;;6.43;4.18;;;;;;;5.46;100.00;93309.06;2117855;27;20405;-82
2021/09/25 00:49:39;;;;;;;6.18;4.20;;;;;;;5.29;100.00;93305.25;2116248;27;20082;-78
2021/09/25 00:50:40;;;;;;;8.88;4.05;;;;;;;5.30;100.00;93298.06;2117823;27;20030;-76
2021/09/25 00:51:41;;;;;;;6.10;4.25;;;;;;;5.41;100.00;93301.50;2115545;27;20023;-78
2021/09/25 00:52:42;;;;;;;6.45;4.20;;;;;;;5.33;100.00;93302.63;2115620;27;20023;-79
2021/09/25 00:53:44;;;;;;;10.32;4.80;;;;;;;5.24;100.00;93300.34;2110781;28;20026;-78
2021/09/25 00:54:45;;;;;;;5.43;4.20;;;;;;;5.22;100.00;93304.47;2109175;28;20090;-82
2021/09/25 00:55:47;;;;;;;6.70;3.92;;;;;;;5.17;100.00;93310.91;2106239;28;20077;-81
2021/09/25 00:56:48;;;;;;;7.20;4.05;;;;;;;5.20;100.00;93304.88;2109121;28;20473;-81
2021/09/25 00:57:58;;;;;;;6.15;4.30;;;;;;;5.21;100.00;93300.31;2116012;27;20089;-78
2021/09/25 00:59:00;;;;;;;5.15;4.10;;;;;;;5.22;100.00;93304.47;2118761;27;20022;-81
2021/09/25 01:00:04;;;;;;;8.45;4.40;;;;;;;5.15;100.00;93307.13;2116817;27;20074;-80
2021/09/25 01:01:05;;;;;;;10.70;4.60;;;;;;;5.27;100.00;93304.88;2121358;27;20092;-79
2021/09/25 01:02:06;;;;;;;6.97;4.28;;;;;;;5.29;100.00;93299.19;2125993;27;20448;-80
2021/09/25 01:03:07;;;;;;;5.97;4.50;;;;;;;5.37;100.00;93299.97;2125078;27;20524;-78
2021/09/25 01:04:09;;;;;;;9.55;4.32;;;;;;;5.35;100.00;93302.97;2108125;28;20569;-79
2021/09/25 01:05:19;;;;;;;5.95;4.55;;;;;;;5.30;100.00;93303.34;2110110;27;20435;-76
2021/09/25 01:06:20;;;;;;;7.43;4.70;;;;;;;5.41;100.00;93304.13;2125233;27;20131;-79
2021/09/25 01:07:21;;;;;;;5.68;4.43;;;;;;;5.32;100.00;93300.34;2107837;28;20040;-76
2021/09/25 01:08:25;;;;;;;6.25;4.25;;;;;;;5.33;100.00;93294.66;2091330;28;20044;-76
2021/09/25 01:09:26;;;;;;;5.55;3.67;;;;;;;5.34;100.00;93298.81;2104030;28;20142;-78
2021/09/25 01:10:27;;;;;;;5.75;4.20;;;;;;;5.29;100.00;93292.00;2121990;27;20462;-77
2021/09/25 01:11:29;;;;;;;5.93;4.03;;;;;;;5.27;100.00;93289.00;2125768;27;20019;-81
2021/09/25 01:12:31;;;;;;;5.60;4.13;;;;;;;5.35;100.00;93292.38;2117217;27;20019;-77
2021/09/25 01:13:32;;;;;;;6.95;4.03;;;;;;;5.35;100.00;93287.06;2099906;28;20561;-78
2021/09/25 01:14:33;;;;;;;6.25;4.45;;;;;;;5.35;100.00;93287.06;2109367;28;20020;-81
2021/09/25 01:15:34;;;;;;;4.65;3.63;;;;;;;5.29;100.00;93289.34;2115707;27;20030;-78
2021/09/25 01:16:35;;;;;;;6.25;4.15;;;;;;;5.26;100.00;93294.66;2107603;28;20021;-80
2021/09/25 01:17:39;;;;;;;8.68;4.13;;;;;;;5.32;100.00;93298.44;2107756;28;20556;-77
2021/09/25 01:18:40;;;;;;;5.25;3.72;;;;;;;5.36;100.00;93301.88;2116810;27;20399;-78
2021/09/25 01:19:42;;;;;;;7.43;4.18;;;;;;;5.25;100.00;93287.84;2117741;27;20031;-79
2021/09/25 01:20:43;;;;;;;5.93;3.60;;;;;;;5.23;100.00;93287.47;2117116;27;20106;-76
2021/09/25 01:21:44;;;;;;;6.55;4.38;;;;;;;5.29;100.00;93283.28;2125156;27;20027;-77
2021/09/25 01:22:45;;;;;;;7.80;4.82;;;;;;;5.31;100.00;93291.63;2125842;27;20496;-79
2021/09/25 01:23:46;;;;;;;8.43;4.25;;;;;;;5.36;100.00;93277.25;2124474;27;20027;-80
2021/09/25 01:24:47;;;;;;;5.63;3.63;;;;;;;5.32;100.00;93279.91;2126681;27;20023;-78
2021/09/25 01:25:48;;;;;;;4.93;3.80;;;;;;;5.33;100.00;93280.66;2125968;27;20026;-77
2021/09/25 01:26:49;;;;;;;6.05;4.45;;;;;;;5.18;100.00;93280.66;2123955;27;20388;-80
2021/09/25 01:27:50;;;;;;;5.72;4.15;;;;;;;5.25;100.00;93274.59;2116198;27;20027;-79
2021/09/25 01:28:53;;;;;;;5.90;3.85;;;;;;;5.32;100.00;93271.94;2115401;27;20033;-80
2021/09/25 01:29:53;;;;;;;5.60;4.45;;;;;;;5.35;100.00;93267.78;2116024;27;20022;-77
2021/09/25 01:30:55;;;;;;;4.68;4.20;;;;;;;5.42;100.00;93271.19;2117433;27;20114;-80
2021/09/25 01:31:56;;;;;;;4.97;3.92;;;;;;;5.33;100.00;93278.00;2115306;27;20049;-78
2021/09/25 01:32:58;;;;;;;5.43;4.20;;;;;;;5.40;100.00;93276.13;2116227;27;20387;-80
2021/09/25 01:33:58;;;;;;;7.03;4.20;;;;;;;5.41;100.00;93266.28;2126295;27;20068;-78
2021/09/25 01:35:01;;;;;;;5.68;4.00;;;;;;;5.41;100.00;93272.34;2125871;27;20023;-78
2021/09/25 01:36:02;;;;;;;5.43;4.32;;;;;;;5.40;100.00;93267.38;2127040;27;20611;-78
2021/09/25 01:37:04;;;;;;;5.93;4.13;;;;;;;5.30;100.00;93263.59;2116538;27;20072;-77
2021/09/25 01:38:05;;;;;;;6.93;3.80;;;;;;;5.34;100.00;93264.38;2117277;27;20015;-79
2021/09/25 01:39:06;;;;;;;11.95;4.38;;;;;;;5.29;100.00;93262.09;2116442;27;20052;-77
2021/09/25 01:40:08;;;;;;;4.95;4.18;;;;;;;5.29;100.00;93270.06;2103756;28;20016;-78
2021/09/25 01:41:11;;;;;;;5.65;3.88;;;;;;;5.26;100.00;93260.94;2091613;28;20017;-77
2021/09/25 01:42:12;;;;;;;5.47;3.97;;;;;;;5.17;100.00;93273.06;2100096;28;20373;-79
2021/09/25 01:43:13;;;;;;;7.45;3.83;;;;;;;5.21;100.00;93271.19;2100414;28;20036;-78
2021/09/25 01:44:14;;;;;;;9.15;4.50;;;;;;;5.23;100.00;93271.56;2091312;28;20029;-78
2021/09/25 01:45:15;;;;;;;6.50;3.92;;;;;;;5.23;100.00;93272.31;2107033;28;20024;-80
2021/09/25 01:46:18;;;;;;;7.15;4.32;;;;;;;5.23;100.00;93277.63;2124712;27;20292;-78
2021/09/25 01:47:19;;;;;;;4.60;3.80;;;;;;;5.29;100.00;93273.44;2126170;27;20011;-80
2021/09/25 01:48:20;;;;;;;7.20;4.28;;;;;;;5.27;100.00;93269.69;2124092;27;20492;-80
2021/09/25 01:49:21;;;;;;;6.55;4.85;;;;;;;5.29;100.00;93275.34;2115676;27;20019;-79
2021/09/25 01:50:22;;;;;;;4.78;3.50;;;;;;;5.23;100.00;93276.88;2105811;28;20031;-81
2021/09/25 01:51:23;;;;;;;5.65;3.70;;;;;;;5.29;100.00;93275.34;2105458;28;20032;-79
2021/09/25 01:52:24;;;;;;;5.28;4.20;;;;;;;5.21;100.00;93274.56;2108820;28;20023;-82
2021/09/25 01:53:25;;;;;;;3.90;3.50;;;;;;;5.23;100.00;93276.88;2101861;28;20460;-79
2021/09/25 01:54:26;;;;;;;6.93;4.60;;;;;;;5.28;100.00;93276.50;2099419;28;20070;-79
2021/09/25 01:55:27;;;;;;;6.15;3.90;;;;;;;5.30;100.00;93268.91;2114412;27;20416;-78
2021/09/25 01:56:28;;;;;;;8.63;4.53;;;;;;;5.30;100.00;93272.31;2125165;27;20041;-78
2021/09/25 01:57:29;;;;;;;9.40;4.32;;;;;;;5.32;100.00;93265.91;2123717;27;20019;-81
2021/09/25 01:58:29;;;;;;;6.40;4.32;;;;;;;5.33;100.00;93265.50;2123830;27;20023;-81
2021/09/25 01:59:30;;;;;;;6.32;4.03;;;;;;;5.38;100.00;93265.13;2105821;28;20024;-81
2021/09/25 02:00:34;;;;;;;11.32;4.07;;;;;;;5.35;100.00;93255.28;2107548;28;20114;-77
2021/09/25 02:01:35;;;;;;;6.22;3.97;;;;;;;5.43;100.00;93262.09;2124518;27;20023;-80
2021/09/25 02:02:37;;;;;;;6.70;4.10;;;;;;;5.31;100.00;93257.16;2126186;27;20497;-78
2021/09/25 02:03:41;;;;;;;4.53;4.05;;;;;;;5.37;100.00;93260.97;2115185;27;20027;-78
2021/09/25 02:04:47;;;;;;;4.53;3.92;;;;;;;5.43;100.00;93262.09;2109752;28;20100;-81
2021/09/25 02:07:34;;;;;;;;;;;;;;;5.21;100.00;93260.56;2139656;27;20547;-78
2021/09/25 02:08:38;;;;;;;5.28;3.58;;;;;;;5.19;100.00;93257.56;2128590;27;19911;-79
2021/09/25 02:09:39;;;;;;;4.93;4.00;;;;;;;5.18;100.00;93258.66;2129630;27;20027;-81
2021/09/25 02:10:39;;;;;;;5.97;4.22;;;;;;;5.15;100.00;93256.78;2128628;27;20110;-79
2021/09/25 02:11:40;;;;;;;6.03;4.03;;;;;;;5.18;100.00;93258.66;2129055;27;20487;-78
2021/09/25 02:12:42;;;;;;;5.25;4.25;;;;;;;5.17;100.00;93255.25;2118616;27;20127;-78
2021/09/25 02:13:43;;;;;;;4.95;4.20;;;;;;;5.20;100.00;93251.88;2113328;28;20615;-81
2021/09/25 02:14:44;;;;;;;6.13;3.65;;;;;;;5.21;100.00;93244.69;2121589;27;20023;-79
2021/09/25 02:15:45;;;;;;;5.85;4.15;;;;;;;5.13;100.00;93243.91;2138210;27;20458;-78
2021/09/25 02:16:46;;;;;;;5.90;4.03;;;;;;;5.07;100.00;93247.31;2137532;27;20479;-78
2021/09/25 02:17:47;;;;;;;4.68;3.83;;;;;;;5.13;100.00;93243.91;2129786;27;20059;-79
2021/09/25 02:18:48;;;;;;;7.78;4.20;;;;;;;5.20;100.00;93241.28;2121023;27;20108;-79
2021/09/25 02:19:49;;;;;;;5.20;4.13;;;;;;;5.09;100.00;93240.50;2112093;28;20028;-82
2021/09/25 02:20:50;;;;;;;4.00;3.60;;;;;;;5.18;100.00;93245.41;2120161;27;20054;-78
2021/09/25 02:21:51;;;;;;;4.65;4.10;;;;;;;5.18;100.00;93242.78;2128114;27;20075;-78
2021/09/25 02:22:53;;;;;;;4.03;3.58;;;;;;;5.10;100.00;93247.34;2129186;27;20397;-80
2021/09/25 02:23:54;;;;;;;6.20;4.00;;;;;;;5.11;100.00;93243.53;2138045;27;20067;-78
2021/09/25 02:24:55;;;;;;;5.53;3.80;;;;;;;5.12;100.00;93249.59;2138600;27;20078;-78
2021/09/25 02:25:56;;;;;;;4.70;4.18;;;;;;;5.19;100.00;93246.97;2138253;27;20064;-78
2021/09/25 02:26:58;;;;;;;5.28;4.20;;;;;;;5.22;100.00;93243.53;2128688;27;20400;-77
2021/09/25 02:27:59;;;;;;;5.10;4.07;;;;;;;5.17;100.00;93249.97;2120569;27;20028;-79
2021/09/25 02:29:00;;;;;;;5.45;4.13;;;;;;;5.09;100.00;93259.03;2126999;27;20625;-79
2021/09/25 02:30:01;;;;;;;5.00;4.50;;;;;;;5.21;100.00;93258.69;2136784;27;20045;-79
2021/09/25 02:31:04;;;;;;;4.90;4.00;;;;;;;5.23;100.00;93255.66;2138289;27;20093;-80
2021/09/25 02:32:05;;;;;;;5.05;3.70;;;;;;;5.28;100.00;93253.41;2128864;27;20019;-79
2021/09/25 02:33:06;;;;;;;4.30;3.90;;;;;;;5.25;100.00;93256.03;2128618;27;20464;-78
2021/09/25 02:34:07;;;;;;;5.50;4.13;;;;;;;5.30;100.00;93250.34;2139901;27;20413;-77
2021/09/25 02:35:10;;;;;;;4.18;3.78;;;;;;;5.37;100.00;93249.63;2140905;27;20025;-78
2021/09/25 02:36:11;;;;;;;7.28;4.72;;;;;;;5.42;100.00;93243.94;2125328;27;20027;-77
2021/09/25 02:37:12;;;;;;;4.47;3.75;;;;;;;5.41;100.00;93243.16;2123284;27;20019;-79
2021/09/25 02:38:13;;;;;;;6.47;4.65;;;;;;;5.43;100.00;93243.53;2131533;27;20022;-81
2021/09/25 02:39:14;;;;;;;4.45;4.03;;;;;;;5.49;100.00;93249.25;2132719;27;20022;-80
2021/09/25 02:40:16;;;;;;;6.38;4.15;;;;;;;5.40;100.00;93244.31;2137934;27;20026;-81
2021/09/25 02:41:17;;;;;;;4.80;4.30;;;;;;;5.35;100.00;93249.97;2138193;27;20026;-80
2021/09/25 02:42:18;;;;;;;8.00;4.28;;;;;;;5.38;100.00;93254.53;2138141;27;20367;-80
2021/09/25 02:43:19;;;;;;;6.97;4.53;;;;;;;5.32;100.00;93245.44;2128300;27;20035;-80
2021/09/25 02:44:20;;;;;;;6.38;4.43;;;;;;;5.36;100.00;93246.22;2128803;27;20023;-79
2021/09/25 02:45:21;;;;;;;5.95;4.03;;;;;;;5.27;100.00;93251.88;2128083;27;20022;-84
2021/09/25 02:46:22;;;;;;;7.22;4.05;;;;;;;5.35;100.00;93251.88;2117468;28;20362;-78
2021/09/25 02:47:23;;;;;;;5.30;4.40;;;;;;;5.30;100.00;93258.31;2128170;27;20113;-81
2021/09/25 02:48:24;;;;;;;4.57;4.13;;;;;;;5.13;100.00;93257.16;2119930;27;20386;-80
2021/09/25 02:49:25;;;;;;;6.47;3.88;;;;;;;5.26;100.00;93252.25;2119916;27;20333;-79
2021/09/25 02:50:26;;;;;;;5.13;3.97;;;;;;;5.29;100.00;93254.16;2126796;27;20023;-81
2021/09/25 02:51:27;;;;;;;6.15;4.30;;;;;;;5.24;100.00;93249.97;2120124;28;20066;-80
2021/09/25 02:52:31;;;;;;;4.85;4.03;;;;;;;5.30;100.00;93253.00;2120296;27;20028;-78
2021/09/25 02:53:32;;;;;;;6.07;4.40;;;;;;;5.24;100.00;93251.88;2128468;27;20019;-77
2021/09/25 02:54:33;;;;;;;4.95;3.92;;;;;;;5.27;100.00;93248.47;2109228;28;20089;-79
2021/09/25 02:55:34;;;;;;;4.47;4.03;;;;;;;5.20;100.00;93245.81;2100048;28;20056;-79
2021/09/25 02:56:35;;;;;;;4.88;3.58;;;;;;;5.24;100.00;93249.22;2106431;28;20671;-78
2021/09/25 02:57:36;;;;;;;9.40;4.22;;;;;;;5.18;100.00;93248.06;2125304;27;20030;-77
2021/09/25 02:58:38;;;;;;;5.20;4.38;;;;;;;5.17;100.00;93241.25;2116889;27;20027;-79
2021/09/25 02:59:39;;;;;;;4.32;3.92;;;;;;;5.09;100.00;93245.78;2117839;28;20372;-80
2021/09/25 03:00:40;;;;;;;5.78;4.18;;;;;;;5.14;100.00;93244.69;2109043;28;20024;-80
2021/09/25 03:01:41;;;;;;;5.13;4.28;;;;;;;5.17;100.00;93249.22;2107286;28;20031;-80
2021/09/25 03:02:42;;;;;;;9.57;4.10;;;;;;;5.15;100.00;93254.16;2116283;27;20087;-81
2021/09/25 03:03:45;;;;;;;4.95;4.15;;;;;;;5.17;100.00;93239.38;2126630;27;20026;-81
2021/09/25 03:04:47;;;;;;;4.45;4.05;;;;;;;5.17;100.00;93241.25;2126632;27;20054;-82
2021/09/25 03:05:48;;;;;;;6.55;4.20;;;;;;;5.19;100.00;93244.31;2124980;27;20456;-81
2021/09/25 03:06:50;;;;;;;5.25;4.30;;;;;;;5.12;100.00;93252.25;2108130;28;20027;-81
2021/09/25 03:07:51;;;;;;;6.35;4.07;;;;;;;5.14;100.00;93250.00;2110008;28;20032;-77
2021/09/25 03:08:53;;;;;;;5.30;4.25;;;;;;;5.16;100.00;93245.81;2117001;28;20026;-78
2021/09/25 03:09:54;;;;;;;8.60;4.35;;;;;;;5.21;100.00;93242.78;2117108;27;20031;-79
2021/09/25 03:10:55;;;;;;;13.90;4.68;;;;;;;5.19;100.00;93253.00;2116671;27;20058;-76
2021/09/25 03:11:56;;;;;;;5.35;4.07;;;;;;;5.14;100.00;93255.28;2117815;28;20024;-79
2021/09/25 03:12:57;;;;;;;5.05;4.07;;;;;;;5.14;100.00;93245.44;2116576;28;20036;-80
2021/09/25 03:13:58;;;;;;;6.20;4.50;;;;;;;5.21;100.00;93244.69;2116773;27;20111;-79
2021/09/25 03:14:59;;;;;;;4.78;4.25;;;;;;;5.22;100.00;93248.84;2116224;27;20498;-81
2021/09/25 03:16:00;;;;;;;4.85;3.88;;;;;;;5.21;100.00;93244.69;2115796;28;20027;-80
2021/09/25 03:17:02;;;;;;;4.15;3.75;;;;;;;5.24;100.00;93251.88;2116306;28;20520;-79
2021/09/25 03:18:03;;;;;;;4.50;3.90;;;;;;;5.28;100.00;93245.44;2117302;27;20151;-80
2021/09/25 03:19:04;;;;;;;5.05;4.22;;;;;;;5.31;100.00;93246.56;2102672;28;20488;-78
2021/09/25 03:20:06;;;;;;;4.82;3.78;;;;;;;5.25;100.00;93240.88;2101426;28;20048;-79
2021/09/25 03:21:07;;;;;;;4.00;3.60;;;;;;;5.20;100.00;93243.16;2110948;28;20028;-78
2021/09/25 03:22:08;;;;;;;4.68;3.70;;;;;;;5.21;100.00;93234.06;2110435;28;20028;-79
2021/09/25 03:23:10;;;;;;;4.05;3.65;;;;;;;5.28;100.00;93234.84;2110819;28;20429;-80
2021/09/25 03:24:11;;;;;;;4.43;3.90;;;;;;;5.30;100.00;93237.09;2110741;28;20049;-80
2021/09/25 03:25:14;;;;;;;6.60;4.32;;;;;;;5.34;100.00;93240.50;2101471;28;20413;-80
2021/09/25 03:26:15;;;;;;;6.05;3.78;;;;;;;5.41;100.00;93237.13;2102427;28;20082;-81
2021/09/25 03:27:16;;;;;;;4.30;3.90;;;;;;;5.36;100.00;93234.84;2111396;28;20088;-78
2021/09/25 03:28:17;;;;;;;6.30;3.70;;;;;;;5.30;100.00;93237.84;2110942;28;20035;-80
2021/09/25 03:29:18;;;;;;;3.83;3.42;;;;;;;5.29;100.00;93241.66;2101663;28;20032;-78
2021/09/25 03:30:19;;;;;;;5.20;4.20;;;;;;;5.26;100.00;93242.41;2088982;28;20526;-79
2021/09/25 03:31:20;;;;;;;5.10;4.05;;;;;;;5.24;100.00;93244.69;2097110;28;20418;-80
2021/09/25 03:32:21;;;;;;;4.32;3.75;;;;;;;5.32;100.00;93242.03;2112942;28;20024;-77
2021/09/25 03:33:22;;;;;;;5.78;4.03;;;;;;;5.32;100.00;93245.44;2111218;28;20036;-82
2021/09/25 03:34:22;;;;;;;4.85;3.92;;;;;;;5.33;100.00;93243.56;2109702;28;20020;-77
2021/09/25 03:35:23;;;;;;;4.05;3.67;;;;;;;5.34;100.00;93237.88;2102904;28;20024;-79
2021/09/25 03:36:25;;;;;;;6.60;3.78;;;;;;;5.33;100.00;93233.72;2102611;28;20156;-77
2021/09/25 03:37:26;;;;;;;6.80;3.92;;;;;;;5.32;100.00;93242.78;2118708;27;20098;-78
2021/09/25 03:38:27;;;;;;;7.03;3.90;;;;;;;5.32;100.00;93245.44;2126561;27;20444;-78
2021/09/25 03:39:28;;;;;;;6.38;4.38;;;;;;;5.33;100.00;93244.31;2111924;28;21282;-81
2021/09/25 03:40:29;;;;;;;4.15;3.75;;;;;;;5.31;100.00;93243.91;2110905;28;20024;-78
2021/09/25 03:41:30;;;;;;;4.45;3.63;;;;;;;5.29;100.00;93241.66;2111750;28;20027;-80
2021/09/25 03:42:31;;;;;;;5.90;4.07;;;;;;;5.31;100.00;93249.22;2111148;28;20598;-78
2021/09/25 03:43:33;;;;;;;5.70;3.78;;;;;;;5.27;100.00;93243.19;2110274;28;20451;-81
2021/09/25 03:44:34;;;;;;;4.18;3.58;;;;;;;5.21;100.00;93240.13;2105871;28;20032;-78
2021/09/25 03:45:35;;;;;;;4.80;3.90;;;;;;;5.30;100.00;93247.72;2103871;28;20066;-82
2021/09/25 03:46:37;;;;;;;5.00;3.17;;;;;;;5.24;100.00;93242.03;2110731;28;20031;-81
2021/09/25 03:47:38;;;;;;;5.07;3.75;;;;;;;5.22;100.00;93246.97;2109782;28;20027;-81
2021/09/25 03:48:39;;;;;;;4.25;3.85;;;;;;;5.27;100.00;93251.88;2094071;28;20115;-81
2021/09/25 03:49:41;;;;;;;3.88;3.58;;;;;;;5.46;100.00;93240.13;2102167;28;20055;-78
2021/09/25 03:50:42;;;;;;;7.55;3.92;;;;;;;5.50;100.00;93243.53;2111390;28;20124;-82
2021/09/25 03:51:43;;;;;;;4.72;3.60;;;;;;;5.52;100.00;93245.81;2109918;28;20111;-79
2021/09/25 03:52:44;;;;;;;6.88;3.78;;;;;;;5.47;100.00;93244.28;2110107;28;20030;-80
2021/09/25 03:53:45;;;;;;;5.15;3.88;;;;;;;5.52;100.00;93245.81;2110283;28;20506;-81
2021/09/25 03:54:46;;;;;;;4.07;3.35;;;;;;;5.38;100.00;93238.63;2112010;28;20523;-80
2021/09/25 03:55:47;;;;;;;4.05;3.75;;;;;;;5.38;100.00;93235.97;2104926;28;20029;-77
2021/09/25 03:56:48;;;;;;;3.83;3.42;;;;;;;5.27;100.00;93240.53;2094153;28;20017;-78
2021/09/25 03:57:49;;;;;;;5.60;3.50;;;;;;;5.23;100.00;93245.81;2110722;28;20074;-80
2021/09/25 03:58:50;;;;;;;5.68;3.50;;;;;;;5.26;100.00;93250.34;2110208;28;20027;-79
2021/09/25 03:59:51;;;;;;;4.25;3.85;;;;;;;5.27;100.00;93245.84;2110350;28;20484;-78
2021/09/25 04:00:52;;;;;;;8.95;3.90;;;;;;;5.08;100.00;93246.19;2111110;28;20400;-82
2021/09/25 04:01:53;;;;;;;4.10;3.42;;;;;;;4.99;100.00;93242.00;2110635;28;20032;-79
2021/09/25 04:02:54;;;;;;;4.22;3.60;;;;;;;5.09;100.00;93250.34;2110458;28;20024;-77
2021/09/25 04:03:56;;;;;;;4.70;3.78;;;;;;;5.12;100.00;93242.41;2102937;28;20455;-78
2021/09/25 04:04:57;;;;;;;4.22;3.70;;;;;;;5.20;100.00;93245.81;2112604;28;20046;-80
2021/09/25 04:05:58;;;;;;;5.28;3.70;;;;;;;5.25;100.00;93248.09;2109945;28;20029;-81
2021/09/25 04:06:59;;;;;;;4.70;3.55;;;;;;;5.35;100.00;93243.91;2100154;28;20099;-79
2021/09/25 04:08:00;;;;;;;4.55;3.85;;;;;;;5.41;100.00;93242.41;2101965;28;20046;-78
2021/09/25 04:09:05;;;;;;;4.78;4.00;;;;;;;5.39;100.00;93240.13;2111000;28;20026;-79
2021/09/25 04:10:06;;;;;;;3.90;3.55;;;;;;;5.38;100.00;93237.88;2100534;28;20027;-80
2021/09/25 04:11:08;;;;;;;5.68;3.60;;;;;;;5.41;100.00;93234.47;2093831;28;20131;-81
2021/09/25 04:12:09;;;;;;;4.40;3.70;;;;;;;5.39;100.00;93240.13;2094937;28;20016;-79
2021/09/25 04:13:11;;;;;;;5.32;3.78;;;;;;;5.29;100.00;93240.91;2101483;28;20385;-79
2021/09/25 04:14:12;;;;;;;3.53;3.22;;;;;;;5.30;100.00;93239.75;2110667;28;20036;-77
2021/09/25 04:15:13;;;;;;;4.10;3.70;;;;;;;5.30;100.00;93239.75;2110278;28;20015;-78
2021/09/25 04:16:14;;;;;;;4.05;3.65;;;;;;;5.21;100.00;93244.69;2112707;28;20456;-80
2021/09/25 04:17:15;;;;;;;4.10;3.70;;;;;;;5.29;100.00;93246.19;2111143;28;20448;-82
2021/09/25 04:18:17;;;;;;;3.63;3.33;;;;;;;5.38;100.00;93246.56;2101755;28;20024;-83
2021/09/25 04:19:17;;;;;;;3.90;3.50;;;;;;;5.42;100.00;93243.94;2101704;28;20032;-79
2021/09/25 04:20:18;;;;;;;4.60;3.17;;;;;;;5.36;100.00;93234.84;2109911;27;20450;-81
2021/09/25 04:21:20;;;;;;;5.63;3.83;;;;;;;5.42;100.00;93238.63;2111417;28;20081;-80
2021/09/25 04:22:21;;;;;;;3.70;3.20;;;;;;;5.41;100.00;93239.78;2111186;28;20019;-82
2021/09/25 04:23:22;;;;;;;3.97;3.38;;;;;;;5.36;100.00;93240.91;2101735;28;20083;-82
2021/09/25 04:24:23;;;;;;;3.75;3.45;;;;;;;5.32;100.00;93239.41;2103065;28;20028;-78
2021/09/25 04:25:30;;;;;;;5.60;3.70;;;;;;;5.25;100.00;93242.78;2111472;28;20031;-78
2021/09/25 04:26:31;;;;;;;3.75;3.35;;;;;;;5.23;100.00;93237.88;2110553;28;20101;-79
2021/09/25 04:27:32;;;;;;;3.60;3.30;;;;;;;5.28;100.00;93242.78;2101634;28;20086;-79
2021/09/25 04:28:34;;;;;;;4.35;3.90;;;;;;;5.28;100.00;93236.75;2111602;28;20520;-78
2021/09/25 04:29:34;;;;;;;4.88;3.60;;;;;;;5.27;100.00;93240.53;2112966;28;20058;-77
2021/09/25 04:30:37;;;;;;;3.80;3.30;;;;;;;5.16;100.00;93237.84;2111726;28;20031;-82
2021/09/25 04:31:40;;;;;;;3.85;3.45;;;;;;;5.17;100.00;93234.06;2110755;28;20027;-79
2021/09/25 04:32:41;;;;;;;3.88;3.08;;;;;;;5.21;100.00;93234.06;2111241;28;20462;-84
2021/09/25 04:33:42;;;;;;;3.50;3.20;;;;;;;5.23;100.00;93234.47;2110556;28;20028;-78
2021/09/25 04:34:43;;;;;;;3.85;3.50;;;;;;;5.17;100.00;93233.31;2110332;28;20512;-77
2021/09/25 04:35:43;;;;;;;4.72;3.47;;;;;;;5.17;100.00;93234.06;2101353;28;20031;-80
2021/09/25 04:36:44;;;;;;;4.00;3.55;;;;;;;5.14;100.00;93236.75;2111474;28;20484;-80
2021/09/25 04:37:45;;;;;;;3.33;3.03;;;;;;;5.17;100.00;93235.97;2109535;28;20038;-82
2021/09/25 04:38:46;;;;;;;4.80;3.55;;;;;;;5.12;100.00;93234.44;2101305;28;20545;-80
2021/09/25 04:39:48;;;;;;;3.80;3.50;;;;;;;5.04;100.00;93231.03;2104245;28;20170;-80
2021/09/25 04:40:49;;;;;;;4.60;3.15;;;;;;;5.10;100.00;93234.09;2109342;27;20059;-80
2021/09/25 04:41:50;;;;;;;4.50;2.95;;;;;;;5.12;100.00;93233.69;2118515;27;20027;-81
2021/09/25 04:42:51;;;;;;;3.15;2.85;;;;;;;5.10;100.00;93234.09;2111034;28;20515;-80
2021/09/25 04:43:52;;;;;;;3.80;3.50;;;;;;;5.09;100.00;93232.53;2101886;28;20020;-78
2021/09/25 04:44:53;;;;;;;3.40;3.10;;;;;;;5.06;100.00;93235.97;2084199;28;20059;-81
2021/09/25 04:45:54;;;;;;;3.75;3.45;;;;;;;5.09;100.00;93226.50;2092866;28;20025;-80
2021/09/25 04:46:55;;;;;;;4.05;3.65;;;;;;;5.01;100.00;93225.75;2092381;28;20048;-81
2021/09/25 04:47:56;;;;;;;3.50;3.20;;;;;;;5.04;100.00;93220.44;2101959;28;20113;-79
2021/09/25 04:48:57;;;;;;;3.95;2.80;;;;;;;5.07;100.00;93226.13;2110012;28;20034;-79
2021/09/25 04:49:58;;;;;;;3.65;3.25;;;;;;;5.00;100.00;93227.66;2110005;28;20051;-80
2021/09/25 04:50:59;;;;;;;4.07;3.22;;;;;;;4.95;100.00;93228.00;2110310;28;20043;-77